createdAt,value
2022-08-03T00:03:35.029Z,16.87
2022-08-03T00:08:40.215Z,16.80
2022-08-03T00:13:43.688Z,16.74
2022-08-03T00:18:45.598Z,16.59
2022-08-03T00:23:51.446Z,16.52
2022-08-03T00:28:55.930Z,16.41
2022-08-03T00:34:03.127Z,16.36
2022-08-03T00:39:05.961Z,16.28
2022-08-03T00:49:11.498Z,16.38
2022-08-03T00:54:14.320Z,16.45
2022-08-03T00:59:20.634Z,16.52
2022-08-03T01:04:23.205Z,16.55
2022-08-03T01:09:37.683Z,16.68
2022-08-03T01:14:46.207Z,16.71
2022-08-03T01:19:54.534Z,16.58
2022-08-03T01:25:03.195Z,16.42
2022-08-03T01:30:08.356Z,16.31
2022-08-03T01:35:14.421Z,16.21
2022-08-03T01:40:17.888Z,16.20
2022-08-03T01:45:22.833Z,16.18
2022-08-03T01:50:28.229Z,16.20
2022-08-03T01:55:32.922Z,16.17
2022-08-03T02:00:38.750Z,16.15
2022-08-03T02:05:42.003Z,16.12
2022-08-03T02:10:46.073Z,16.08
2022-08-03T02:15:49.958Z,16.06
2022-08-03T02:20:52.575Z,15.96
2022-08-03T02:25:59.932Z,15.93
2022-08-03T02:31:11.969Z,15.91
2022-08-03T02:36:16.197Z,15.90
2022-08-03T02:41:23.153Z,15.86
2022-08-03T02:46:32.433Z,15.83
2022-08-03T02:51:36.924Z,15.96
2022-08-03T02:56:40.383Z,15.96
2022-08-03T03:01:45.074Z,15.87
2022-08-03T03:06:47.935Z,15.84
2022-08-03T03:11:52.344Z,15.82
2022-08-03T03:16:57.625Z,15.87
2022-08-03T03:22:02.361Z,15.98
2022-08-03T03:27:05.546Z,16.09
2022-08-03T03:32:09.392Z,16.16
2022-08-03T03:37:11.501Z,16.20
2022-08-03T03:42:14.056Z,16.21
2022-08-03T03:47:17.981Z,16.21
2022-08-03T03:52:35.120Z,16.30
2022-08-03T03:57:37.224Z,16.31
2022-08-03T04:02:40.834Z,16.35
2022-08-03T04:07:52.143Z,16.40
2022-08-03T04:12:56.458Z,16.43
2022-08-03T04:18:01.710Z,16.40
2022-08-03T04:23:05.430Z,16.35
2022-08-03T04:28:31.386Z,16.29
2022-08-03T04:33:38.787Z,16.33
2022-08-03T04:38:53.049Z,16.46
2022-08-03T04:43:57.675Z,16.80
2022-08-03T04:49:01.497Z,17.32
2022-08-03T04:54:03.480Z,18.40
2022-08-03T04:59:05.153Z,20.03
2022-08-03T05:04:08.253Z,22.54
2022-08-03T05:09:09.979Z,24.54
2022-08-03T05:14:11.757Z,26.02
2022-08-03T05:19:14.843Z,26.86
2022-08-03T05:24:17.181Z,27.87
2022-08-03T05:29:19.067Z,28.80
2022-08-03T05:34:22.597Z,29.49
2022-08-03T05:39:24.689Z,30.16
2022-08-03T05:44:26.872Z,30.39
2022-08-03T05:49:30.393Z,30.52
2022-08-03T05:54:56.170Z,31.24
2022-08-03T05:59:58.347Z,29.87
2022-08-03T06:05:02.471Z,28.98
2022-08-03T06:10:36.897Z,31.94
2022-08-03T06:15:28.101Z,28.81
2022-08-03T06:20:31.648Z,31.92
2022-08-03T06:25:33.899Z,34.04
2022-08-03T06:30:36.389Z,33.86
2022-08-03T06:35:42.455Z,32.33
2022-08-03T06:40:46.808Z,32.96
2022-08-03T06:45:53.027Z,33.21
2022-08-03T06:50:56.435Z,33.59
2022-08-03T06:55:58.739Z,33.26
2022-08-03T07:01:01.100Z,32.84
2022-08-03T07:06:04.640Z,31.85
2022-08-03T07:11:06.897Z,31.90
2022-08-03T07:16:08.944Z,32.45
2022-08-03T07:21:12.439Z,31.53
2022-08-03T07:26:14.918Z,31.27
2022-08-03T07:31:17.093Z,31.33
2022-08-03T07:36:20.809Z,30.62
2022-08-03T07:41:22.846Z,30.47
2022-08-03T07:46:24.888Z,31.19
2022-08-03T07:51:30.396Z,31.12
2022-08-03T07:56:32.611Z,31.67
2022-08-03T08:01:34.782Z,32.26
2022-08-03T08:06:38.260Z,31.76
2022-08-03T08:11:41.592Z,32.71
2022-08-03T08:16:43.588Z,31.85
2022-08-03T08:21:53.813Z,32.43
2022-08-03T08:27:05.362Z,32.81
2022-08-03T08:32:07.413Z,32.57
2022-08-03T08:37:10.936Z,33.56
2022-08-03T08:42:13.178Z,34.16
2022-08-03T08:47:15.597Z,33.17
2022-08-03T08:52:24.969Z,34.71
2022-08-03T08:57:42.459Z,34.50
2022-08-03T09:02:46.773Z,35.25
2022-08-03T09:07:50.772Z,37.20
2022-08-03T09:12:53.442Z,38.16
2022-08-03T09:17:58.709Z,38.22
2022-08-03T09:23:14.022Z,37.90
2022-08-03T09:28:59.894Z,38.65
2022-08-03T09:34:01.646Z,36.58
2022-08-03T09:39:07.263Z,39.83
2022-08-03T09:44:09.368Z,37.22
2022-08-03T09:49:27.309Z,37.44
2022-08-03T09:54:31.843Z,39.55
2022-08-03T09:59:34.704Z,38.37
2022-08-03T10:04:47.624Z,38.97
2022-08-03T10:10:30.576Z,40.23
2022-08-03T10:16:22.592Z,41.13
2022-08-03T10:20:49.884Z,38.25
2022-08-03T10:25:58.839Z,40.80
2022-08-03T10:31:02.580Z,42.42
2022-08-03T10:36:07.238Z,40.27
2022-08-03T10:41:11.347Z,38.55
2022-08-03T10:46:16.070Z,37.24
2022-08-03T10:51:20.366Z,37.09
2022-08-03T10:56:49.700Z,37.22
2022-08-03T11:01:58.766Z,38.20
2022-08-03T11:07:21.134Z,37.23
2022-08-03T11:12:30.457Z,36.23
2022-08-03T11:17:46.321Z,34.47
2022-08-03T11:22:56.982Z,36.32
2022-08-03T11:28:27.676Z,35.29
2022-08-03T11:33:31.174Z,35.31
2022-08-03T11:38:33.307Z,35.33
2022-08-03T11:43:47.106Z,35.44
2022-08-03T11:48:51.393Z,34.88
2022-08-03T11:53:55.261Z,34.99
2022-08-03T11:59:17.952Z,35.14
2022-08-03T12:04:21.562Z,35.78
2022-08-03T12:09:23.615Z,35.56
2022-08-03T12:14:48.576Z,36.31
2022-08-03T12:19:50.511Z,36.52
2022-08-03T12:24:52.514Z,35.07
2022-08-03T12:29:59.028Z,35.56
2022-08-03T12:35:02.295Z,35.32
2022-08-03T12:40:10.071Z,35.63
2022-08-03T12:45:21.172Z,35.45
2022-08-03T12:50:31.351Z,35.41
2022-08-03T12:55:56.513Z,35.52
2022-08-03T13:00:58.331Z,35.66
2022-08-03T13:06:00.336Z,35.82
2022-08-03T13:11:20.920Z,35.99
2022-08-03T13:16:24.717Z,35.77
2022-08-03T13:21:26.783Z,35.93
2022-08-03T13:26:28.859Z,36.00
2022-08-03T13:31:32.485Z,36.32
2022-08-03T13:36:59.220Z,36.23
2022-08-03T13:41:57.357Z,35.70
2022-08-03T13:47:00.469Z,36.12
2022-08-03T13:52:02.770Z,36.03
2022-08-03T13:58:04.730Z,36.98
2022-08-03T14:02:28.949Z,35.93
2022-08-03T14:07:31.192Z,36.12
2022-08-03T14:12:33.230Z,36.09
2022-08-03T14:17:42.364Z,36.34
2022-08-03T14:22:52.276Z,36.62
2022-08-03T14:27:54.361Z,36.31
2022-08-03T14:33:00.703Z,35.53
2022-08-03T14:38:03.645Z,36.17
2022-08-03T14:43:05.804Z,36.52
2022-08-03T14:50:29.532Z,36.01
2022-08-03T14:53:32.429Z,36.29
2022-08-03T14:58:34.494Z,36.54
2022-08-03T15:03:37.739Z,36.47
2022-08-03T15:08:39.887Z,36.80
2022-08-03T15:13:41.699Z,36.40
2022-08-03T15:18:45.253Z,35.80
2022-08-03T15:23:47.384Z,35.85
2022-08-03T15:28:49.705Z,35.84
2022-08-03T15:33:53.483Z,35.97
2022-08-03T15:38:55.796Z,36.47
2022-08-03T15:43:57.919Z,36.24
2022-08-03T15:49:01.456Z,36.43
2022-08-03T15:54:03.252Z,36.39
2022-08-03T15:59:12.199Z,36.21
2022-08-03T16:04:17.029Z,36.55
2022-08-03T16:09:24.262Z,36.38
2022-08-03T16:14:51.831Z,36.44
2022-08-03T16:19:56.597Z,36.22
2022-08-03T16:25:00.099Z,36.27
2022-08-03T16:30:02.141Z,35.88
2022-08-03T16:35:06.478Z,36.00
2022-08-03T16:40:19.347Z,36.10
2022-08-03T16:45:22.262Z,35.84
2022-08-03T16:50:25.823Z,35.75
2022-08-03T16:55:43.216Z,35.85
2022-08-03T17:00:51.009Z,34.75
2022-08-03T17:05:54.466Z,35.19
2022-08-03T17:11:01.822Z,34.80
2022-08-03T17:16:05.714Z,34.38
2022-08-03T17:21:12.036Z,34.28
2022-08-03T17:26:21.164Z,33.78
2022-08-03T17:31:31.725Z,33.49
2022-08-03T17:37:02.659Z,33.23
2022-08-03T17:41:59.254Z,33.27
2022-08-03T17:52:31.302Z,33.09
2022-08-03T17:58:01.448Z,32.87
2022-08-03T18:03:15.370Z,32.48
2022-08-03T18:08:24.801Z,32.28
2022-08-03T18:13:30.835Z,32.05
2022-08-03T18:18:36.913Z,31.50
2022-08-03T18:23:42.898Z,31.02
2022-08-03T18:28:47.670Z,30.62
2022-08-03T18:34:32.534Z,30.24
2022-08-03T18:39:19.656Z,29.87
2022-08-03T18:44:53.390Z,29.41
2022-08-03T18:49:56.033Z,29.05
2022-08-03T18:55:13.977Z,28.62
2022-08-03T19:00:42.442Z,28.20
2022-08-03T19:06:02.678Z,27.91
2022-08-03T19:11:17.763Z,27.60
2022-08-03T19:16:27.586Z,27.22
2022-08-03T19:21:30.867Z,26.87
2022-08-03T19:26:36.052Z,26.62
2022-08-03T19:31:39.477Z,26.49
2022-08-03T19:37:03.635Z,26.25
2022-08-03T19:42:23.209Z,26.05
2022-08-03T19:47:36.312Z,26.06
2022-08-03T19:52:40.261Z,25.77
2022-08-03T19:57:49.254Z,25.58
2022-08-03T20:02:51.248Z,25.46
2022-08-03T20:07:53.248Z,25.20
2022-08-03T20:13:00.019Z,25.00
2022-08-03T20:18:01.928Z,24.81
2022-08-03T20:23:07.256Z,24.66
2022-08-03T20:28:13.921Z,24.48
2022-08-03T20:33:48.770Z,24.23
2022-08-03T20:38:53.148Z,24.05
2022-08-03T20:43:59.453Z,23.83
2022-08-03T20:49:03.946Z,23.70
2022-08-03T20:59:36.908Z,23.27
2022-08-03T21:04:50.224Z,23.15
2022-08-03T21:09:57.061Z,23.07
2022-08-03T21:13:07.723Z,23.45
2022-08-03T21:15:04.689Z,22.94
2022-08-03T21:20:09.133Z,22.79
2022-08-03T21:25:15.017Z,22.63
2022-08-03T21:30:20.556Z,22.49
2022-08-03T21:35:23.914Z,22.36
2022-08-03T21:40:25.714Z,22.27
2022-08-03T21:45:29.379Z,22.14
2022-08-03T21:50:35.916Z,22.08
2022-08-03T21:55:38.908Z,21.97
2022-08-03T22:00:43.180Z,21.83
2022-08-03T22:05:45.581Z,21.66
2022-08-03T22:10:50.780Z,21.57
2022-08-03T22:15:54.419Z,21.53
2022-08-03T22:20:57.534Z,21.47
2022-08-03T22:26:03.700Z,21.40
2022-08-03T22:31:31.025Z,21.38
2022-08-03T22:36:30.764Z,21.12
2022-08-03T22:41:33.038Z,21.00
2022-08-03T22:46:38.009Z,20.94
2022-08-03T22:51:40.831Z,20.97
2022-08-03T22:56:46.719Z,20.84
2022-08-03T23:01:52.639Z,20.80
2022-08-03T23:06:57.463Z,20.63
2022-08-03T23:12:01.404Z,20.61
2022-08-03T23:17:05.336Z,20.49
2022-08-03T23:22:08.170Z,20.40
2022-08-03T23:27:31.635Z,20.36
2022-08-03T23:32:35.997Z,20.22
2022-08-03T23:38:04.760Z,20.07
2022-08-03T23:43:02.458Z,20.10
2022-08-03T23:48:07.810Z,19.98
2022-08-03T23:53:18.518Z,19.83
2022-08-03T23:58:37.298Z,19.94
